createdAt,value
2022-10-10T00:01:04.623Z,196.05
2022-10-10T00:06:36.072Z,194.31
2022-10-10T00:12:07.827Z,199.02
2022-10-10T00:17:39.701Z,201.71
2022-10-10T00:23:11.543Z,202.46
2022-10-10T00:28:43.339Z,203.97
2022-10-10T00:34:15.064Z,207.98
2022-10-10T00:39:46.747Z,206.28
2022-10-10T00:45:18.418Z,201.84
2022-10-10T00:50:50.132Z,196.28
2022-10-10T00:56:21.874Z,191.47
2022-10-10T01:01:53.611Z,189.92
2022-10-10T01:07:25.402Z,187.75
2022-10-10T01:12:57.042Z,186.45
2022-10-10T01:18:28.960Z,185.01
2022-10-10T01:24:00.670Z,183.99
2022-10-10T01:29:33.210Z,181.58
2022-10-10T01:35:05.198Z,181.19
2022-10-10T01:40:36.597Z,182.98
2022-10-10T01:46:08.370Z,181.58
2022-10-10T01:51:40.110Z,181.98
2022-10-10T01:57:11.785Z,182.58
2022-10-10T02:02:43.626Z,179.24
2022-10-10T02:08:15.483Z,178.48
2022-10-10T02:13:48.236Z,179.05
2022-10-10T02:24:51.783Z,176.96
2022-10-10T02:30:29.872Z,174.55
2022-10-10T02:36:04.013Z,173.65
2022-10-10T02:47:10.029Z,171.86
2022-10-10T02:52:41.726Z,172.04
2022-10-10T02:58:13.612Z,171.68
2022-10-10T03:03:45.273Z,170.11
2022-10-10T03:09:17.103Z,169.42
2022-10-10T03:14:48.592Z,168.73
2022-10-10T03:20:20.373Z,168.56
2022-10-10T03:25:51.761Z,169.07
2022-10-10T03:31:23.756Z,168.22
2022-10-10T03:36:57.808Z,165.71
2022-10-10T03:42:29.582Z,165.39
2022-10-10T03:53:32.938Z,164.09
2022-10-10T04:04:36.639Z,164.73
2022-10-10T04:10:08.395Z,162.65
2022-10-10T04:15:40.175Z,163.28
2022-10-10T04:21:12.110Z,163.28
2022-10-10T04:26:43.780Z,163.12
2022-10-10T04:32:15.616Z,162.01
2022-10-10T04:37:47.379Z,162.17
2022-10-10T04:43:21.794Z,162.80
2022-10-10T04:48:53.303Z,161.86
2022-10-10T04:54:25.098Z,161.86
2022-10-10T04:59:57.084Z,160.46
2022-10-10T05:05:28.725Z,160.15
2022-10-10T05:11:00.612Z,162.01
2022-10-10T05:16:34.239Z,161.54
2022-10-10T05:22:07.140Z,160.77
2022-10-10T05:27:38.782Z,162.49
2022-10-10T05:33:12.884Z,162.17
2022-10-10T05:38:44.620Z,162.65
2022-10-10T05:44:16.351Z,163.44
2022-10-10T05:49:49.154Z,161.86
2022-10-10T05:55:20.959Z,162.33
2022-10-10T06:00:52.834Z,164.41
2022-10-10T06:06:24.630Z,163.92
2022-10-10T06:11:56.241Z,165.39
2022-10-10T06:17:28.168Z,164.25
2022-10-10T06:22:59.869Z,165.22
2022-10-10T06:28:31.721Z,163.76
2022-10-10T06:34:03.784Z,164.09
2022-10-10T06:39:35.353Z,165.71
2022-10-10T06:45:07.337Z,165.39
2022-10-10T06:50:39.102Z,168.73
2022-10-10T06:56:10.759Z,174.55
2022-10-10T07:01:42.461Z,178.10
2022-10-10T07:07:14.296Z,179.63
2022-10-10T07:12:48.281Z,177.53
2022-10-10T07:18:19.973Z,175.29
2022-10-10T07:23:51.827Z,175.47
2022-10-10T07:34:55.535Z,179.43
2022-10-10T07:40:27.174Z,179.82
2022-10-10T07:51:30.173Z,178.48
2022-10-10T07:57:02.161Z,178.86
2022-10-10T08:02:33.963Z,179.63
2022-10-10T08:08:05.766Z,179.24
2022-10-10T08:13:37.258Z,178.10
2022-10-10T08:19:09.288Z,176.59
2022-10-10T08:27:00.986Z,178.29
2022-10-10T08:32:32.783Z,178.48
2022-10-10T08:38:04.635Z,172.93
2022-10-10T08:43:36.274Z,168.90
2022-10-10T08:56:57.975Z,161.86
2022-10-10T09:02:43.598Z,158.48
2022-10-10T09:08:01.014Z,154.94
2022-10-10T09:13:32.787Z,150.47
2022-10-10T09:24:34.173Z,141.30
2022-10-10T09:30:05.871Z,137.91
2022-10-10T09:35:37.688Z,134.79
2022-10-10T09:41:09.558Z,131.09
2022-10-10T09:46:41.274Z,128.46
2022-10-10T09:52:13.124Z,126.81
2022-10-10T09:57:44.951Z,122.97
2022-10-10T10:03:16.692Z,123.25
2022-10-10T10:14:17.507Z,120.31
2022-10-10T10:19:49.250Z,119.54
2022-10-10T10:25:20.967Z,118.27
2022-10-10T10:30:52.877Z,117.02
2022-10-10T10:36:24.660Z,115.97
2022-10-10T10:41:56.461Z,115.32
2022-10-10T10:47:27.992Z,115.81
2022-10-10T10:52:59.517Z,113.75
2022-10-10T11:05:17.847Z,112.91
2022-10-10T11:09:49.651Z,108.71
2022-10-10T11:15:06.675Z,109.28
2022-10-10T11:20:38.296Z,109.21
2022-10-10T11:31:39.589Z,107.87
2022-10-10T11:37:11.558Z,107.45
2022-10-10T11:42:43.145Z,106.36
2022-10-10T11:53:45.799Z,104.89
2022-10-10T11:59:17.408Z,104.43
2022-10-10T12:04:49.103Z,102.76
2022-10-10T12:15:50.262Z,101.75
2022-10-10T12:21:21.437Z,101.20
2022-10-10T12:26:52.779Z,101.38
2022-10-10T12:32:24.118Z,100.41
2022-10-10T12:43:25.144Z,100.53
2022-10-10T12:48:56.805Z,100.47
2022-10-10T12:54:28.544Z,100.35
2022-10-10T13:00:02.200Z,100.47
2022-10-10T13:05:31.668Z,100.17
2022-10-10T13:11:03.935Z,99.75
2022-10-10T13:22:05.046Z,99.75
2022-10-10T13:27:37.200Z,98.74
2022-10-10T13:33:08.610Z,99.09
2022-10-10T13:44:10.095Z,99.27
2022-10-10T13:49:41.955Z,99.81
2022-10-10T13:55:13.476Z,98.98
2022-10-10T14:06:14.962Z,99.86
2022-10-10T14:11:46.479Z,99.93
2022-10-10T14:17:18.133Z,100.22
2022-10-10T14:22:51.486Z,100.47
2022-10-10T14:28:23.245Z,99.99
2022-10-10T14:33:55.052Z,100.77
2022-10-10T14:39:26.791Z,100.83
2022-10-10T14:44:58.388Z,101.32
2022-10-10T14:50:31.115Z,101.75
2022-10-10T14:56:02.952Z,101.94
2022-10-10T15:01:34.732Z,103.14
2022-10-10T15:07:13.343Z,103.26
2022-10-10T15:12:38.379Z,104.23
2022-10-10T15:18:39.248Z,104.36
2022-10-10T15:23:41.704Z,104.36
2022-10-10T15:29:13.364Z,104.56
2022-10-10T15:34:45.331Z,104.36
2022-10-10T15:40:16.889Z,104.23
2022-10-10T15:45:55.902Z,104.43
2022-10-10T15:51:19.937Z,102.76
2022-10-10T15:56:51.697Z,103.97
2022-10-10T16:02:23.670Z,103.01
2022-10-10T16:07:55.504Z,103.14
2022-10-10T16:13:27.443Z,103.01
2022-10-10T16:18:58.978Z,103.07
2022-10-10T16:24:30.821Z,104.17
2022-10-10T16:30:02.660Z,105.68
2022-10-10T16:35:34.436Z,106.43
2022-10-10T16:41:06.224Z,107.80
2022-10-10T16:46:37.986Z,108.36
2022-10-10T16:52:09.566Z,108.64
2022-10-10T16:57:41.883Z,108.78
2022-10-10T17:03:13.773Z,108.78
2022-10-10T17:14:15.134Z,109.14
2022-10-10T17:19:46.881Z,110.44
2022-10-10T17:25:18.406Z,111.70
2022-10-10T17:30:50.095Z,111.32
2022-10-10T17:36:21.910Z,111.32
2022-10-10T17:47:23.163Z,113.21
2022-10-10T17:52:54.889Z,114.69
2022-10-10T17:58:27.133Z,114.77
2022-10-10T18:03:58.924Z,115.56
2022-10-10T18:09:30.849Z,116.86
2022-10-10T18:15:02.646Z,119.79
2022-10-10T18:20:34.182Z,119.28
2022-10-10T18:26:06.016Z,121.01
2022-10-10T18:31:37.777Z,121.90
2022-10-10T18:37:09.629Z,123.43
2022-10-10T18:42:41.413Z,123.98
2022-10-10T18:48:12.869Z,125.47
2022-10-10T18:53:44.620Z,126.90
2022-10-10T18:59:16.683Z,130.57
2022-10-10T19:04:48.210Z,132.34
2022-10-10T19:10:19.617Z,132.44
2022-10-10T19:15:51.658Z,132.97
2022-10-10T19:21:23.393Z,133.18
2022-10-10T19:26:55.305Z,133.50
2022-10-10T19:32:26.838Z,135.34
2022-10-10T19:37:58.659Z,136.67
2022-10-10T19:43:30.312Z,136.90
2022-10-10T19:49:01.784Z,136.90
2022-10-10T19:54:34.207Z,136.45
2022-10-10T20:00:05.967Z,137.69
2022-10-10T20:05:37.817Z,137.91
2022-10-10T20:11:09.828Z,138.03
2022-10-10T20:16:41.395Z,139.64
2022-10-10T20:22:14.365Z,140.47
2022-10-10T20:33:15.651Z,148.20
2022-10-10T20:38:47.405Z,146.00
2022-10-10T20:44:19.313Z,146.77
2022-10-10T20:49:50.750Z,151.84
2022-10-10T20:55:22.586Z,151.98
2022-10-10T21:06:24.174Z,141.06
2022-10-10T21:11:56.012Z,138.14
2022-10-10T21:17:27.699Z,138.49
2022-10-10T21:22:59.690Z,138.60
2022-10-10T21:28:31.425Z,138.49
2022-10-10T21:34:03.256Z,136.00
2022-10-10T21:39:35.008Z,139.06
2022-10-10T21:45:06.714Z,141.42
2022-10-10T21:50:38.548Z,144.36
2022-10-10T21:56:10.553Z,141.54
2022-10-10T22:01:42.149Z,142.02
2022-10-10T22:03:53.910Z,145.74
2022-10-10T22:09:25.377Z,145.36
2022-10-10T22:20:26.209Z,144.11
2022-10-10T22:25:58.133Z,144.73
2022-10-10T22:31:29.834Z,144.48
2022-10-10T22:42:33.317Z,144.73
2022-10-10T22:48:04.945Z,146.25
2022-10-10T22:53:36.483Z,144.61
2022-10-10T22:59:08.757Z,142.02
2022-10-10T23:04:40.677Z,140.47
2022-10-10T23:10:12.465Z,140.47
2022-10-10T23:15:44.117Z,141.42
2022-10-10T23:26:47.607Z,143.24
2022-10-10T23:32:18.934Z,141.30
2022-10-10T23:37:50.334Z,142.02
2022-10-10T23:48:54.045Z,141.90
2022-10-10T23:54:25.952Z,141.78
2022-10-10T23:59:57.734Z,143.12
